Time;durP1;ratioP1;P1;durP2;ratioP2;P2;SDS_P1;SDS_P2;PMS_P1;PMS_P2;Temp;Humidity;BMP_temperature;BMP_pressure;BME280_temperature;BME280_humidity;BME280_pressure;Samples;Min_cycle;Max_cycle;Signal;HPM_P1;HPM_P2
2023/12/10 00:00:11;;;;;;;3.20;1.40;;;5.80;99.90;;;;;;4952027;28;20179;-56
2023/12/10 00:02:36;;;;;;;8.27;1.87;;;5.80;99.90;;;;;;4944386;28;20195;-56
2023/12/10 00:05:02;;;;;;;8.03;2.03;;;5.80;99.90;;;;;;4943942;28;20434;-56
2023/12/10 00:07:28;;;;;;;2.33;1.17;;;5.80;99.90;;;;;;4950614;28;20529;-57
2023/12/10 00:09:55;;;;;;;3.33;1.33;;;5.70;99.90;;;;;;4947187;28;20857;-56
2023/12/10 00:12:21;;;;;;;3.83;1.50;;;5.70;99.90;;;;;;4947728;28;20500;-57
2023/12/10 00:14:52;;;;;;;10.30;1.27;;;5.60;99.90;;;;;;4950939;28;20201;-56
2023/12/10 00:17:18;;;;;;;7.77;1.70;;;5.60;99.90;;;;;;4951263;28;20178;-54
2023/12/10 00:19:43;;;;;;;8.50;1.40;;;5.60;99.90;;;;;;4947731;28;20418;-55
2023/12/10 00:22:09;;;;;;;3.90;1.20;;;5.60;99.90;;;;;;4946065;28;20643;-56
2023/12/10 00:24:34;;;;;;;3.20;1.10;;;5.60;99.90;;;;;;4950377;28;20182;-56
2023/12/10 00:27:00;;;;;;;6.83;1.77;;;5.50;99.90;;;;;;4950839;28;20193;-55
2023/12/10 00:29:26;;;;;;;6.80;1.33;;;5.50;99.90;;;;;;4948389;28;20190;-56
2023/12/10 00:31:51;;;;;;;5.80;1.73;;;5.50;99.90;;;;;;4951868;28;20716;-56
2023/12/10 00:34:17;;;;;;;4.10;1.60;;;5.50;99.90;;;;;;4947241;28;20261;-57
2023/12/10 00:36:43;;;;;;;2.50;1.10;;;5.50;99.90;;;;;;4951576;28;20183;-57
2023/12/10 00:39:09;;;;;;;8.13;1.33;;;5.40;99.90;;;;;;4941378;28;20261;-56
2023/12/10 00:41:34;;;;;;;8.70;2.50;;;5.40;99.90;;;;;;4951178;28;20199;-54
2023/12/10 00:44:01;;;;;;;9.20;1.80;;;5.40;99.90;;;;;;4946429;28;20415;-56
2023/12/10 00:46:27;;;;;;;3.00;1.50;;;5.40;99.90;;;;;;4948943;28;20680;-57
2023/12/10 00:48:53;;;;;;;11.37;1.73;;;5.40;99.90;;;;;;4947494;28;20442;-56
2023/12/10 00:51:20;;;;;;;10.03;1.90;;;5.40;99.90;;;;;;4950306;28;21127;-55
2023/12/10 00:53:46;;;;;;;4.93;1.73;;;5.40;99.90;;;;;;4948953;28;20179;-56
2023/12/10 00:56:11;;;;;;;7.00;2.00;;;5.40;99.90;;;;;;4954952;28;21350;-56
2023/12/10 00:58:37;;;;;;;13.40;2.37;;;5.40;99.90;;;;;;4943225;28;20430;-56
2023/12/10 01:01:03;;;;;;;6.13;1.80;;;5.40;99.90;;;;;;4952121;28;20186;-56
2023/12/10 01:03:28;;;;;;;14.30;2.63;;;5.40;99.90;;;;;;4945657;28;20179;-56
2023/12/10 01:05:54;;;;;;;7.50;2.00;;;5.40;99.90;;;;;;4944004;28;20242;-56
2023/12/10 01:08:19;;;;;;;16.20;2.63;;;5.40;99.90;;;;;;4950583;28;20265;-55
2023/12/10 01:10:45;;;;;;;6.77;2.10;;;5.40;99.90;;;;;;4945130;28;20306;-55
2023/12/10 01:13:11;;;;;;;16.83;2.50;;;5.40;99.90;;;;;;4947309;28;20214;-57
2023/12/10 01:15:36;;;;;;;8.03;2.10;;;5.40;99.90;;;;;;4940100;28;20630;-56
2023/12/10 01:18:02;;;;;;;10.77;2.40;;;5.40;99.90;;;;;;4948735;28;20205;-55
2023/12/10 01:20:29;;;;;;;15.53;2.50;;;5.40;99.90;;;;;;4948177;28;20179;-56
2023/12/10 01:22:55;;;;;;;7.93;2.40;;;5.30;99.90;;;;;;4951659;28;20561;-57
2023/12/10 01:25:20;;;;;;;10.83;2.87;;;5.30;99.90;;;;;;4943841;28;20959;-57
2023/12/10 01:27:46;;;;;;;6.60;1.87;;;5.30;99.90;;;;;;4944073;28;20187;-55
2023/12/10 01:30:12;;;;;;;12.07;2.33;;;5.30;99.90;;;;;;4948269;28;20187;-60
2023/12/10 01:32:37;;;;;;;14.50;2.50;;;5.30;99.90;;;;;;4947753;28;20204;-58
2023/12/10 01:35:04;;;;;;;15.23;2.30;;;5.30;99.90;;;;;;4940100;28;20214;-57
2023/12/10 01:37:30;;;;;;;15.57;2.37;;;5.30;99.90;;;;;;4945463;28;20815;-57
2023/12/10 01:39:55;;;;;;;12.93;2.70;;;5.30;99.90;;;;;;4947496;28;20441;-58
2023/12/10 01:42:21;;;;;;;15.77;2.73;;;5.30;99.90;;;;;;4945839;28;20206;-56
2023/12/10 01:44:47;;;;;;;13.90;2.20;;;5.30;99.90;;;;;;4943410;28;20187;-55
2023/12/10 01:47:13;;;;;;;10.40;2.37;;;5.30;99.90;;;;;;4949078;28;20190;-56
2023/12/10 01:49:39;;;;;;;18.93;2.43;;;5.20;99.90;;;;;;4945226;28;20225;-59
2023/12/10 01:52:05;;;;;;;10.30;2.50;;;5.20;99.90;;;;;;4943086;28;20485;-58
2023/12/10 01:54:31;;;;;;;9.70;2.63;;;5.20;99.90;;;;;;4951510;28;20465;-58
2023/12/10 01:56:57;;;;;;;10.47;2.30;;;5.10;99.90;;;;;;4950391;28;20417;-58
2023/12/10 01:59:23;;;;;;;15.00;2.23;;;5.10;99.90;;;;;;4946064;28;20732;-59
2023/12/10 02:01:50;;;;;;;12.37;2.13;;;5.10;99.90;;;;;;4947175;28;20453;-59
2023/12/10 02:04:18;;;;;;;9.77;2.80;;;5.10;99.90;;;;;;4948704;28;20808;-57
2023/12/10 02:06:44;;;;;;;15.13;2.60;;;5.00;99.90;;;;;;4944387;28;20441;-58
2023/12/10 02:09:12;;;;;;;13.40;2.80;;;5.00;99.90;;;;;;4945408;28;20426;-59
2023/12/10 02:11:41;;;;;;;11.63;2.73;;;5.00;99.90;;;;;;4950606;28;20680;-59
2023/12/10 02:14:07;;;;;;;10.53;2.30;;;5.00;99.90;;;;;;4947643;28;22406;-58
2023/12/10 02:16:33;;;;;;;14.73;3.13;;;5.00;99.90;;;;;;4941506;28;20501;-56
2023/12/10 02:18:59;;;;;;;11.87;2.93;;;4.90;99.90;;;;;;4949883;28;20644;-58
2023/12/10 02:21:26;;;;;;;15.80;3.70;;;4.90;99.90;;;;;;4946489;28;20755;-57
2023/12/10 02:24:04;;;;;;;14.93;3.20;;;4.90;99.90;;;;;;4944293;28;20446;-58
2023/12/10 02:26:30;;;;;;;16.40;3.20;;;4.90;99.90;;;;;;4944828;28;20521;-59
2023/12/10 02:28:56;;;;;;;15.40;3.10;;;4.90;99.90;;;;;;4952758;28;20430;-59
2023/12/10 02:31:24;;;;;;;20.60;3.30;;;4.80;99.90;;;;;;4949702;28;20478;-57
2023/12/10 02:33:50;;;;;;;8.23;2.50;;;4.80;99.90;;;;;;4945793;28;20622;-57
2023/12/10 02:36:15;;;;;;;21.23;4.00;;;4.80;99.90;;;;;;4943204;28;20434;-57
2023/12/10 02:38:42;;;;;;;24.60;4.03;;;4.80;99.90;;;;;;4949920;28;20174;-58
2023/12/10 02:41:07;;;;;;;17.30;3.90;;;4.80;99.90;;;;;;4951565;28;20190;-58
2023/12/10 02:43:33;;;;;;;23.17;3.63;;;4.80;99.90;;;;;;4949338;28;20536;-57
2023/12/10 02:45:59;;;;;;;17.23;3.10;;;4.80;99.90;;;;;;4952743;28;20599;-59
2023/12/10 02:48:24;;;;;;;18.73;3.20;;;4.80;99.90;;;;;;4948248;28;20732;-58
2023/12/10 02:50:50;;;;;;;12.13;3.40;;;4.80;99.90;;;;;;4948376;28;20190;-58
2023/12/10 02:53:17;;;;;;;14.50;3.33;;;4.70;99.90;;;;;;4950686;28;20217;-57
2023/12/10 02:55:42;;;;;;;23.97;3.33;;;4.70;99.90;;;;;;4951314;28;20468;-57
2023/12/10 02:58:08;;;;;;;12.33;3.40;;;4.60;99.90;;;;;;4958736;28;20521;-59
2023/12/10 03:00:34;;;;;;;14.40;2.60;;;4.60;99.90;;;;;;4951641;28;20604;-58
2023/12/10 03:03:00;;;;;;;13.90;2.60;;;4.60;99.90;;;;;;4952408;28;20301;-59
2023/12/10 03:05:26;;;;;;;20.00;3.80;;;4.60;99.90;;;;;;4946604;28;20509;-58
2023/12/10 03:07:52;;;;;;;20.20;3.47;;;4.60;99.90;;;;;;4950279;28;20442;-58
2023/12/10 03:10:18;;;;;;;14.87;3.13;;;4.60;99.90;;;;;;4946003;28;20525;-59
2023/12/10 03:12:44;;;;;;;11.00;2.57;;;4.60;99.90;;;;;;4952211;28;20529;-59
2023/12/10 03:15:10;;;;;;;18.60;3.60;;;4.60;99.90;;;;;;4951609;28;20494;-59
2023/12/10 03:17:36;;;;;;;17.23;2.93;;;4.60;99.90;;;;;;4954655;28;20276;-59
2023/12/10 03:20:03;;;;;;;10.33;2.43;;;4.60;99.90;;;;;;4952147;28;20645;-57
2023/12/10 03:22:29;;;;;;;15.77;3.07;;;4.60;99.90;;;;;;4944702;28;20465;-58
2023/12/10 03:24:54;;;;;;;12.83;2.40;;;4.50;99.90;;;;;;4945344;28;20446;-59
2023/12/10 03:27:21;;;;;;;16.53;2.90;;;4.50;99.90;;;;;;4949582;28;20252;-59
2023/12/10 03:29:46;;;;;;;11.43;3.10;;;4.50;99.90;;;;;;4949116;28;20205;-57
2023/12/10 03:32:12;;;;;;;12.23;2.80;;;4.50;99.90;;;;;;4952929;28;20944;-59
2023/12/10 03:34:37;;;;;;;16.63;3.50;;;4.50;99.90;;;;;;4951261;28;20598;-59
2023/12/10 03:37:03;;;;;;;16.60;2.83;;;4.50;99.90;;;;;;4948071;28;20197;-57
2023/12/10 03:39:29;;;;;;;16.13;2.37;;;4.50;99.90;;;;;;4954925;28;20178;-58
2023/12/10 03:41:54;;;;;;;12.07;3.17;;;4.50;99.90;;;;;;4950565;28;20201;-59
2023/12/10 03:44:20;;;;;;;11.03;3.13;;;4.50;99.90;;;;;;4945095;28;20197;-58
2023/12/10 03:46:46;;;;;;;12.53;3.20;;;4.50;99.90;;;;;;4956455;28;20187;-58
2023/12/10 03:49:11;;;;;;;14.97;2.40;;;4.50;99.90;;;;;;4946389;28;20254;-58
2023/12/10 03:51:37;;;;;;;14.77;4.80;;;4.50;99.90;;;;;;4950521;28;20831;-59
2023/12/10 03:54:03;;;;;;;11.77;2.57;;;4.50;99.90;;;;;;4951212;28;20189;-58
2023/12/10 03:56:28;;;;;;;12.67;2.60;;;4.50;99.90;;;;;;4949700;28;20270;-59
2023/12/10 03:58:54;;;;;;;7.07;2.53;;;4.50;99.90;;;;;;4951234;28;20461;-58
2023/12/10 04:01:20;;;;;;;15.00;2.47;;;4.50;99.90;;;;;;4949848;28;20230;-58
2023/12/10 04:03:45;;;;;;;14.67;2.80;;;4.50;99.90;;;;;;4949142;28;20290;-58
2023/12/10 04:06:11;;;;;;;13.90;2.90;;;4.50;99.90;;;;;;4950086;28;20559;-58
2023/12/10 04:08:36;;;;;;;11.20;2.97;;;4.50;99.90;;;;;;4950991;28;20222;-59
2023/12/10 04:11:02;;;;;;;17.30;2.70;;;4.50;99.90;;;;;;4952103;28;20183;-56
2023/12/10 04:13:28;;;;;;;15.07;2.53;;;4.60;99.90;;;;;;4952087;28;20201;-59
2023/12/10 04:15:53;;;;;;;33.50;3.90;;;4.60;99.90;;;;;;4945182;28;20205;-59
2023/12/10 04:18:19;;;;;;;19.40;3.00;;;4.60;99.90;;;;;;4946433;28;20182;-58
2023/12/10 04:20:45;;;;;;;17.27;2.70;;;4.60;99.90;;;;;;4949884;28;20551;-58
2023/12/10 04:23:10;;;;;;;10.43;3.10;;;4.60;99.90;;;;;;4943315;28;20214;-59
2023/12/10 04:25:36;;;;;;;13.60;2.50;;;4.60;99.90;;;;;;4948974;28;20225;-59
2023/12/10 04:28:03;;;;;;;13.13;2.53;;;4.60;99.90;;;;;;4950635;28;20196;-59
2023/12/10 04:30:29;;;;;;;10.13;2.57;;;4.60;99.90;;;;;;4950614;28;20205;-59
2023/12/10 04:32:54;;;;;;;10.43;2.50;;;4.60;99.90;;;;;;4949680;28;20492;-59
2023/12/10 04:35:20;;;;;;;14.57;2.50;;;4.60;99.90;;;;;;4945554;28;20220;-59
2023/12/10 04:37:46;;;;;;;17.03;3.17;;;4.50;99.90;;;;;;4948910;28;20174;-59
2023/12/10 04:40:13;;;;;;;13.00;2.73;;;4.60;99.90;;;;;;4941938;28;20201;-59
2023/12/10 04:42:39;;;;;;;14.20;2.37;;;4.60;99.90;;;;;;4939312;28;20269;-59
2023/12/10 04:45:06;;;;;;;5.30;2.33;;;4.60;99.90;;;;;;4948780;28;21059;-57
2023/12/10 04:47:32;;;;;;;10.60;3.00;;;4.50;99.90;;;;;;4944222;28;20442;-58
2023/12/10 04:49:58;;;;;;;19.83;3.17;;;4.50;99.90;;;;;;4949125;28;20425;-59
2023/12/10 04:52:24;;;;;;;11.13;3.00;;;4.50;99.90;;;;;;4942789;28;20462;-59
2023/12/10 04:54:49;;;;;;;10.53;2.43;;;4.50;99.90;;;;;;4947390;28;20469;-57
2023/12/10 04:57:15;;;;;;;18.87;3.63;;;4.50;99.90;;;;;;4947880;28;20896;-58
2023/12/10 04:59:41;;;;;;;15.50;3.07;;;4.50;99.90;;;;;;4942179;28;20179;-59
2023/12/10 05:02:06;;;;;;;13.20;3.23;;;4.50;99.90;;;;;;4946891;28;20201;-59
2023/12/10 05:04:32;;;;;;;8.90;2.30;;;4.50;99.90;;;;;;4943514;28;20640;-58
2023/12/10 05:06:57;;;;;;;9.00;2.87;;;4.50;99.90;;;;;;4946018;28;20191;-58
2023/12/10 05:09:23;;;;;;;14.80;3.00;;;4.50;99.90;;;;;;4944892;28;20190;-59
2023/12/10 05:11:48;;;;;;;13.50;3.10;;;4.60;99.90;;;;;;4945787;28;20250;-59
2023/12/10 05:14:14;;;;;;;8.60;2.70;;;4.60;99.90;;;;;;4944027;28;20787;-59
2023/12/10 05:16:40;;;;;;;13.77;2.77;;;4.50;99.90;;;;;;4948473;28;20541;-59
2023/12/10 05:19:05;;;;;;;12.87;2.50;;;4.50;99.90;;;;;;4949650;28;20174;-58
2023/12/10 05:21:33;;;;;;;10.40;2.43;;;4.50;99.90;;;;;;4945771;28;20218;-58
2023/12/10 05:23:58;;;;;;;9.23;2.97;;;4.50;99.90;;;;;;4947201;28;20930;-59
2023/12/10 05:26:24;;;;;;;8.57;1.90;;;4.50;99.90;;;;;;4951500;28;20418;-59
2023/12/10 05:28:50;;;;;;;7.03;2.20;;;4.50;99.90;;;;;;4950831;28;20175;-59
2023/12/10 05:31:15;;;;;;;10.87;2.50;;;4.50;99.90;;;;;;4943170;28;20183;-58
2023/12/10 05:33:41;;;;;;;17.10;2.80;;;4.50;99.90;;;;;;4954140;28;20257;-59
2023/12/10 05:36:07;;;;;;;12.73;2.47;;;4.50;99.90;;;;;;4946942;28;20207;-59
2023/12/10 05:38:33;;;;;;;15.20;3.00;;;4.50;99.90;;;;;;4946480;28;20216;-58
2023/12/10 05:40:59;;;;;;;14.57;2.60;;;4.60;99.90;;;;;;4944928;28;20467;-58
2023/12/10 05:43:24;;;;;;;11.87;3.00;;;4.60;99.90;;;;;;4948816;28;20588;-59
2023/12/10 05:45:50;;;;;;;12.00;2.50;;;4.60;99.90;;;;;;4954568;28;20179;-58
2023/12/10 05:48:16;;;;;;;14.13;2.63;;;4.60;99.90;;;;;;4946072;28;20206;-60
2023/12/10 05:50:41;;;;;;;16.70;3.10;;;4.60;99.90;;;;;;4951032;28;20225;-59
2023/12/10 05:53:07;;;;;;;15.00;2.13;;;4.60;99.90;;;;;;4948192;28;20761;-59
2023/12/10 05:55:32;;;;;;;11.10;2.60;;;4.60;99.90;;;;;;4946262;28;20210;-59
2023/12/10 05:57:58;;;;;;;11.70;2.30;;;4.60;99.90;;;;;;4950127;28;20194;-59
2023/12/10 06:00:24;;;;;;;9.00;2.67;;;4.60;99.90;;;;;;4952614;28;20175;-60
2023/12/10 06:02:49;;;;;;;13.00;2.80;;;4.70;99.90;;;;;;4953924;28;20205;-58
2023/12/10 06:05:15;;;;;;;11.77;2.57;;;4.70;99.90;;;;;;4950979;28;20773;-58
2023/12/10 06:07:40;;;;;;;16.63;2.57;;;4.70;99.90;;;;;;4954225;28;20228;-59
2023/12/10 06:10:07;;;;;;;18.83;2.63;;;4.70;99.90;;;;;;4952804;28;20274;-59
2023/12/10 06:12:33;;;;;;;13.97;2.67;;;4.70;99.90;;;;;;4955958;28;20642;-58
2023/12/10 06:14:58;;;;;;;5.53;1.97;;;4.70;99.90;;;;;;4950731;28;20449;-58
2023/12/10 06:17:24;;;;;;;22.87;2.77;;;4.70;99.90;;;;;;4953619;28;20255;-59
2023/12/10 06:19:49;;;;;;;12.60;2.13;;;4.70;99.90;;;;;;4953884;28;20177;-58
2023/12/10 06:22:15;;;;;;;12.27;2.57;;;4.70;99.90;;;;;;4948071;28;20269;-58
2023/12/10 06:24:41;;;;;;;22.53;8.73;;;4.70;99.90;;;;;;4953997;28;20214;-59
2023/12/10 06:27:06;;;;;;;12.87;3.47;;;4.60;99.90;;;;;;4952463;28;20178;-58
2023/12/10 06:29:32;;;;;;;13.90;3.00;;;4.60;99.90;;;;;;4949160;28;20179;-58
2023/12/10 06:31:58;;;;;;;21.57;4.00;;;4.60;99.90;;;;;;4949076;28;20221;-58
2023/12/10 06:34:23;;;;;;;8.33;2.23;;;4.60;99.90;;;;;;4951627;28;20208;-58
2023/12/10 06:36:49;;;;;;;13.40;3.03;;;4.60;99.90;;;;;;4953043;28;20217;-58
2023/12/10 06:39:16;;;;;;;9.80;2.93;;;4.60;99.90;;;;;;4948865;28;20638;-58
2023/12/10 06:41:42;;;;;;;10.10;2.47;;;4.50;99.90;;;;;;4953356;28;20709;-58
2023/12/10 06:44:09;;;;;;;9.50;2.13;;;4.50;99.90;;;;;;4950223;28;20525;-57
2023/12/10 06:46:37;;;;;;;19.33;2.17;;;4.50;99.90;;;;;;4951998;28;20414;-57
2023/12/10 06:49:02;;;;;;;18.67;2.67;;;4.50;99.90;;;;;;4947011;28;20907;-57
2023/12/10 06:51:28;;;;;;;13.07;3.37;;;4.50;99.90;;;;;;4952280;28;20438;-58
2023/12/10 06:53:54;;;;;;;9.33;2.77;;;4.50;99.90;;;;;;4952844;28;20616;-58
2023/12/10 06:56:19;;;;;;;12.90;4.20;;;4.50;99.90;;;;;;4952303;28;20214;-59
2023/12/10 06:58:45;;;;;;;12.63;2.77;;;4.50;99.90;;;;;;4952978;28;20182;-58
2023/12/10 07:01:11;;;;;;;12.07;2.83;;;4.50;99.90;;;;;;4948835;28;20194;-59
2023/12/10 07:03:36;;;;;;;10.43;3.00;;;4.50;99.90;;;;;;4944934;28;20179;-57
2023/12/10 07:06:03;;;;;;;14.10;2.30;;;4.50;99.90;;;;;;4952237;28;20601;-57
2023/12/10 07:08:30;;;;;;;12.70;2.93;;;4.50;99.90;;;;;;4948191;28;20182;-54
2023/12/10 07:10:56;;;;;;;9.30;2.67;;;4.50;99.90;;;;;;4937204;28;20426;-56
2023/12/10 07:13:21;;;;;;;10.63;1.90;;;4.50;99.90;;;;;;4945608;28;20496;-54
2023/12/10 07:15:47;;;;;;;10.03;2.37;;;4.50;99.90;;;;;;4952290;28;20219;-54
2023/12/10 07:18:13;;;;;;;20.67;2.30;;;4.50;99.90;;;;;;4953671;28;20232;-55
2023/12/10 07:20:38;;;;;;;8.27;2.33;;;4.50;99.90;;;;;;4946158;28;20186;-57
2023/12/10 07:23:04;;;;;;;7.13;2.53;;;4.50;99.90;;;;;;4945197;28;20587;-53
2023/12/10 07:25:30;;;;;;;12.83;2.70;;;4.50;99.90;;;;;;4950167;28;20261;-56
2023/12/10 07:27:56;;;;;;;9.40;2.37;;;4.50;99.90;;;;;;4951923;28;20254;-56
2023/12/10 07:30:21;;;;;;;13.23;3.10;;;4.50;99.90;;;;;;4955209;28;20461;-55
2023/12/10 07:32:48;;;;;;;12.37;2.73;;;4.50;99.90;;;;;;4953167;28;20601;-56
2023/12/10 07:35:14;;;;;;;11.63;2.33;;;4.60;99.90;;;;;;4952230;28;20224;-56
2023/12/10 07:37:39;;;;;;;7.60;2.67;;;4.60;99.90;;;;;;4942568;28;20785;-56
2023/12/10 07:40:06;;;;;;;14.40;2.80;;;4.60;99.90;;;;;;4951901;28;20648;-55
2023/12/10 07:42:32;;;;;;;6.50;2.40;;;4.70;99.90;;;;;;4954841;28;20205;-54
2023/12/10 07:44:57;;;;;;;13.07;2.70;;;4.70;99.90;;;;;;4952092;28;20422;-56
2023/12/10 07:47:23;;;;;;;6.37;2.63;;;4.80;99.90;;;;;;4947505;28;20203;-56
2023/12/10 07:49:49;;;;;;;13.20;2.53;;;4.90;99.90;;;;;;4954024;28;20186;-55
2023/12/10 07:52:14;;;;;;;6.07;2.30;;;4.90;99.90;;;;;;4952276;28;20271;-56
2023/12/10 07:54:40;;;;;;;11.47;2.97;;;5.00;99.90;;;;;;4941778;28;20588;-56
2023/12/10 07:57:05;;;;;;;13.70;3.90;;;5.00;99.90;;;;;;4940419;28;20183;-56
2023/12/10 07:59:31;;;;;;;16.87;3.60;;;5.10;99.90;;;;;;4945213;28;20179;-56
2023/12/10 08:01:57;;;;;;;13.90;2.80;;;5.20;99.90;;;;;;4945848;28;20206;-56
2023/12/10 08:04:22;;;;;;;10.10;2.63;;;5.30;99.90;;;;;;4952486;28;20570;-55
2023/12/10 08:06:48;;;;;;;10.87;2.37;;;5.30;99.90;;;;;;4947281;28;20668;-56
2023/12/10 08:09:14;;;;;;;17.37;3.00;;;5.40;99.90;;;;;;4952536;28;20224;-56
2023/12/10 08:11:39;;;;;;;7.27;2.13;;;5.40;99.90;;;;;;4946385;28;20209;-55
2023/12/10 08:14:05;;;;;;;14.80;2.57;;;5.40;99.90;;;;;;4949203;28;20197;-56
2023/12/10 08:16:30;;;;;;;7.67;2.13;;;5.50;99.90;;;;;;4951343;28;20279;-56
2023/12/10 08:18:57;;;;;;;13.13;2.67;;;5.50;99.90;;;;;;4949494;28;20190;-54
2023/12/10 08:21:23;;;;;;;16.97;4.83;;;5.50;99.90;;;;;;4948176;28;20739;-56
2023/12/10 08:23:48;;;;;;;11.80;2.53;;;5.50;99.90;;;;;;4950250;28;20430;-56
2023/12/10 08:26:14;;;;;;;9.67;3.20;;;5.50;99.90;;;;;;4949256;28;20473;-56
2023/12/10 08:28:40;;;;;;;19.80;2.70;;;5.50;99.90;;;;;;4951270;28;20592;-56
2023/12/10 08:31:06;;;;;;;7.37;2.40;;;5.60;99.90;;;;;;4950916;28;20210;-55
2023/12/10 08:33:32;;;;;;;16.50;2.67;;;5.60;99.90;;;;;;4949555;28;20944;-57
2023/12/10 08:35:58;;;;;;;12.77;2.93;;;5.60;99.90;;;;;;4950041;28;20469;-57
2023/12/10 08:38:24;;;;;;;8.20;2.80;;;5.60;99.90;;;;;;4947410;28;20191;-56
2023/12/10 08:40:50;;;;;;;7.03;2.90;;;5.60;99.90;;;;;;4942261;28;20578;-54
2023/12/10 08:43:17;;;;;;;9.70;2.37;;;5.60;99.90;;;;;;4950589;28;20289;-56
2023/12/10 08:45:42;;;;;;;11.83;2.67;;;5.60;99.90;;;;;;4948324;28;20454;-56
2023/12/10 08:48:08;;;;;;;12.30;2.87;;;5.60;99.90;;;;;;4945700;28;20529;-55
2023/12/10 08:50:34;;;;;;;8.10;2.23;;;5.60;99.90;;;;;;4950153;28;20609;-55
2023/12/10 08:52:59;;;;;;;13.20;3.10;;;5.60;99.90;;;;;;4946546;28;20207;-56
2023/12/10 08:55:25;;;;;;;8.70;2.60;;;5.60;99.90;;;;;;4944717;28;20293;-55
2023/12/10 08:57:50;;;;;;;8.03;2.07;;;5.70;99.90;;;;;;4948768;28;20202;-55
2023/12/10 09:00:16;;;;;;;16.63;2.70;;;5.70;99.90;;;;;;4951784;28;20174;-54
2023/12/10 09:02:42;;;;;;;9.93;2.53;;;5.70;99.90;;;;;;4949401;28;20257;-56
2023/12/10 09:05:08;;;;;;;17.10;5.87;;;5.80;99.90;;;;;;4950518;28;21162;-55
2023/12/10 09:07:34;;;;;;;12.53;3.10;;;5.90;99.90;;;;;;4948245;28;20174;-56
2023/12/10 09:10:00;;;;;;;13.27;3.13;;;5.90;99.90;;;;;;4950839;28;20787;-56
2023/12/10 09:12:29;;;;;;;9.33;3.33;;;6.00;99.90;;;;;;4950394;28;20623;-56
2023/12/10 09:14:54;;;;;;;8.70;3.10;;;6.10;99.90;;;;;;4949226;28;20221;-55
2023/12/10 09:17:21;;;;;;;18.53;3.70;;;6.20;99.90;;;;;;4950655;28;20463;-56
2023/12/10 09:19:47;;;;;;;14.87;3.00;;;6.20;99.90;;;;;;4949259;28;20262;-55
2023/12/10 09:22:13;;;;;;;7.60;2.83;;;6.30;99.90;;;;;;4946663;28;20453;-57
2023/12/10 09:24:39;;;;;;;6.80;2.60;;;6.40;99.90;;;;;;4947606;28;20445;-56
2023/12/10 09:27:05;;;;;;;7.60;2.33;;;6.50;99.90;;;;;;4948883;28;20732;-55
2023/12/10 09:29:38;;;;;;;6.73;2.33;;;6.50;99.90;;;;;;4947982;28;20521;-58
2023/12/10 09:32:05;;;;;;;9.07;2.80;;;6.60;99.90;;;;;;4942332;28;20207;-56
2023/12/10 09:34:31;;;;;;;11.23;2.50;;;6.60;99.90;;;;;;4941351;28;20458;-56
2023/12/10 09:36:56;;;;;;;8.70;3.37;;;6.60;99.90;;;;;;4953253;28;20413;-55
2023/12/10 09:39:22;;;;;;;14.10;2.70;;;6.60;99.90;;;;;;4953036;28;20203;-57
2023/12/10 09:41:49;;;;;;;7.23;2.00;;;6.70;99.90;;;;;;4943013;28;20765;-56
2023/12/10 09:44:14;;;;;;;5.80;2.10;;;6.80;99.90;;;;;;4948146;28;20270;-57
2023/12/10 09:46:41;;;;;;;11.23;2.77;;;6.90;99.90;;;;;;4954246;28;20509;-56
2023/12/10 09:49:06;;;;;;;7.53;2.23;;;7.00;99.90;;;;;;4941875;28;20371;-57
2023/12/10 09:51:32;;;;;;;4.10;1.87;;;7.00;99.90;;;;;;4951968;28;21086;-55
2023/12/10 09:53:58;;;;;;;13.10;2.90;;;7.00;99.90;;;;;;4953665;28;20779;-56
2023/12/10 09:56:23;;;;;;;9.50;2.47;;;7.00;99.90;;;;;;4956054;28;20253;-56
2023/12/10 09:58:49;;;;;;;11.40;2.33;;;6.90;99.90;;;;;;4950873;28;20197;-56
2023/12/10 10:01:15;;;;;;;9.97;2.93;;;6.80;99.90;;;;;;4951209;28;20736;-57
2023/12/10 10:03:41;;;;;;;8.20;2.30;;;6.70;99.90;;;;;;4950219;28;20174;-55
2023/12/10 10:06:07;;;;;;;7.00;2.77;;;6.60;99.90;;;;;;4951189;28;20198;-54
2023/12/10 10:08:33;;;;;;;9.93;1.77;;;6.60;99.90;;;;;;4954914;28;20414;-57
2023/12/10 10:10:58;;;;;;;13.00;2.90;;;6.50;99.90;;;;;;4943067;28;20489;-56
2023/12/10 10:13:24;;;;;;;15.90;2.43;;;6.40;99.90;;;;;;4952772;28;20202;-56
2023/12/10 10:15:50;;;;;;;11.53;2.43;;;6.40;99.90;;;;;;4950243;28;20353;-54
2023/12/10 10:18:16;;;;;;;11.07;2.70;;;6.30;99.90;;;;;;4946674;28;20179;-56
2023/12/10 10:20:42;;;;;;;8.50;2.20;;;6.40;99.90;;;;;;4953860;28;20453;-57
2023/12/10 10:23:10;;;;;;;14.73;2.60;;;6.40;99.90;;;;;;4948577;28;20462;-56
2023/12/10 10:25:38;;;;;;;9.63;2.43;;;6.40;99.90;;;;;;4952269;28;20225;-56
2023/12/10 10:28:08;;;;;;;8.13;3.00;;;6.30;99.90;;;;;;4949657;28;20833;-57
2023/12/10 10:30:33;;;;;;;17.63;3.00;;;6.40;99.90;;;;;;4952511;28;20465;-55
2023/12/10 10:33:00;;;;;;;9.03;2.23;;;6.50;99.90;;;;;;4951619;28;20446;-56
2023/12/10 10:35:26;;;;;;;10.80;2.53;;;6.60;99.90;;;;;;4939987;28;20214;-58
2023/12/10 10:37:52;;;;;;;14.03;2.70;;;6.60;99.90;;;;;;4950445;28;20462;-56
2023/12/10 10:40:18;;;;;;;12.20;2.33;;;6.60;99.90;;;;;;4946492;28;20437;-57
2023/12/10 10:42:45;;;;;;;6.80;2.77;;;6.60;99.90;;;;;;4950111;28;20454;-56
2023/12/10 10:45:11;;;;;;;11.40;2.90;;;6.50;99.90;;;;;;4948188;28;20179;-56
2023/12/10 10:47:37;;;;;;;9.97;2.70;;;6.50;99.90;;;;;;4951670;28;20553;-55
2023/12/10 10:50:04;;;;;;;12.90;3.10;;;6.40;99.90;;;;;;4945377;28;20191;-57
2023/12/10 10:52:33;;;;;;;5.37;2.63;;;6.30;99.90;;;;;;4948716;28;20473;-54
2023/12/10 10:55:00;;;;;;;7.10;2.40;;;6.20;99.90;;;;;;4946769;28;20883;-55
2023/12/10 10:57:35;;;;;;;8.60;2.60;;;6.20;99.90;;;;;;4944044;28;20438;-57
2023/12/10 11:00:22;;;;;;;13.40;2.87;;;6.20;99.90;;;;;;4950788;28;21443;-53
2023/12/10 11:03:01;;;;;;;7.27;2.50;;;6.20;99.90;;;;;;4938810;28;20450;-56
2023/12/10 11:05:34;;;;;;;10.77;2.77;;;6.20;99.90;;;;;;4958251;28;20410;-56
2023/12/10 11:08:00;;;;;;;17.63;2.93;;;6.20;99.90;;;;;;4952974;28;20421;-57
2023/12/10 11:10:26;;;;;;;12.50;2.40;;;6.10;99.90;;;;;;4951573;28;20517;-56
2023/12/10 11:12:54;;;;;;;18.63;2.60;;;6.10;99.90;;;;;;4944787;28;20596;-56
2023/12/10 11:15:23;;;;;;;19.63;2.50;;;6.10;99.90;;;;;;4957618;28;20216;-56
2023/12/10 11:17:52;;;;;;;12.83;3.00;;;6.10;99.90;;;;;;4954014;28;20782;-56
2023/12/10 11:20:33;;;;;;;15.30;2.73;;;6.00;99.90;;;;;;4949125;28;20438;-56
2023/12/10 11:23:03;;;;;;;17.47;3.53;;;6.10;99.90;;;;;;4952037;28;20450;-56
2023/12/10 11:25:30;;;;;;;8.20;2.50;;;6.00;99.90;;;;;;4951841;28;20509;-56
2023/12/10 11:27:59;;;;;;;11.50;2.73;;;6.10;99.90;;;;;;4946725;28;20433;-57
2023/12/10 11:30:26;;;;;;;10.70;3.10;;;6.10;99.90;;;;;;4950007;28;20437;-56
2023/12/10 11:32:52;;;;;;;7.43;2.87;;;6.00;99.90;;;;;;4950887;28;20995;-56
2023/12/10 11:35:18;;;;;;;9.43;3.67;;;6.10;99.90;;;;;;4944880;28;20466;-57
2023/12/10 11:37:43;;;;;;;15.63;4.60;;;6.00;99.90;;;;;;4946876;28;20593;-57
2023/12/10 11:40:10;;;;;;;6.90;2.73;;;6.00;99.90;;;;;;4950190;28;20206;-56
2023/12/10 11:42:36;;;;;;;10.60;2.70;;;6.00;99.90;;;;;;4948268;28;20202;-57
2023/12/10 11:45:04;;;;;;;9.30;2.17;;;6.00;99.90;;;;;;4951416;28;20420;-55
2023/12/10 11:47:29;;;;;;;5.80;2.30;;;6.00;99.90;;;;;;4951706;28;21152;-56
2023/12/10 11:49:55;;;;;;;11.40;3.10;;;6.00;99.90;;;;;;4953699;28;20417;-57
2023/12/10 11:52:21;;;;;;;13.27;2.83;;;6.00;99.90;;;;;;4948736;28;20700;-56
2023/12/10 11:54:47;;;;;;;9.13;3.00;;;6.00;99.90;;;;;;4944350;28;20198;-55
2023/12/10 11:57:13;;;;;;;10.83;3.83;;;6.00;99.90;;;;;;4953014;28;20434;-57
2023/12/10 11:59:39;;;;;;;11.87;3.27;;;6.00;99.90;;;;;;4949724;28;22459;-57
2023/12/10 12:02:05;;;;;;;11.40;2.73;;;6.00;99.90;;;;;;4950095;28;20202;-56
2023/12/10 12:04:33;;;;;;;18.83;3.43;;;6.00;99.90;;;;;;4946238;28;20637;-55
2023/12/10 12:06:59;;;;;;;14.33;2.70;;;6.00;99.90;;;;;;4947806;28;20422;-57
2023/12/10 12:09:25;;;;;;;7.43;2.83;;;6.10;99.90;;;;;;4949597;28;20417;-57
2023/12/10 12:11:51;;;;;;;10.50;2.90;;;6.10;99.90;;;;;;4951323;28;20591;-57
2023/12/10 12:14:18;;;;;;;11.03;3.10;;;6.10;99.90;;;;;;4946353;28;20418;-57
2023/12/10 12:16:46;;;;;;;11.77;3.43;;;6.10;99.90;;;;;;4945145;28;20493;-56
2023/12/10 12:19:24;;;;;;;8.00;2.80;;;6.10;99.90;;;;;;4950602;28;20422;-57
2023/12/10 12:21:50;;;;;;;10.70;3.80;;;6.10;99.90;;;;;;4936117;28;20889;-56
2023/12/10 12:24:15;;;;;;;7.93;2.67;;;6.10;99.90;;;;;;4950803;28;20430;-57
2023/12/10 12:26:41;;;;;;;18.43;3.43;;;6.10;99.90;;;;;;4949353;28;20182;-57
2023/12/10 12:29:06;;;;;;;11.23;3.43;;;6.10;99.90;;;;;;4949185;28;20182;-57
2023/12/10 12:31:32;;;;;;;14.07;3.37;;;6.00;99.90;;;;;;4946969;28;20191;-57
2023/12/10 12:33:58;;;;;;;12.70;3.20;;;6.00;99.90;;;;;;4948155;28;20833;-57
2023/12/10 12:36:23;;;;;;;17.73;3.37;;;6.00;99.90;;;;;;4948887;28;20191;-56
2023/12/10 12:38:49;;;;;;;14.47;3.37;;;6.10;99.90;;;;;;4947643;28;20178;-57
2023/12/10 12:41:14;;;;;;;7.30;2.93;;;6.10;99.90;;;;;;4951734;28;20665;-58
2023/12/10 12:43:40;;;;;;;14.80;3.37;;;6.10;99.90;;;;;;4949221;28;20179;-57